createdAt,value
2017-09-06T00:00:21.938Z,1011.17
2017-09-06T00:01:21.878Z,1011.15
2017-09-06T00:02:21.840Z,1011.14
2017-09-06T00:03:21.811Z,1011.13
2017-09-06T00:04:21.775Z,1011.12
2017-09-06T00:05:21.740Z,1011.09
2017-09-06T00:06:21.710Z,1011.10
2017-09-06T00:07:21.686Z,1011.10
2017-09-06T00:08:21.648Z,1011.07
2017-09-06T00:09:21.609Z,1011.07
2017-09-06T00:10:21.580Z,1011.07
2017-09-06T00:11:21.551Z,1011.00
2017-09-06T00:12:21.520Z,1010.98
2017-09-06T00:13:21.488Z,1010.95
2017-09-06T00:14:21.448Z,1010.98
2017-09-06T00:15:21.415Z,1010.97
2017-09-06T00:16:21.385Z,1010.93
2017-09-06T00:17:21.353Z,1010.96
2017-09-06T00:18:21.322Z,1010.98
2017-09-06T00:19:21.288Z,1010.94
2017-09-06T00:20:21.259Z,1010.93
2017-09-06T00:21:21.229Z,1010.92
2017-09-06T00:22:21.202Z,1010.90
2017-09-06T00:23:21.159Z,1010.86
2017-09-06T00:24:21.128Z,1010.88
2017-09-06T00:25:21.096Z,1010.85
2017-09-06T00:26:21.061Z,1010.83
2017-09-06T00:27:21.029Z,1010.82
2017-09-06T00:28:21.005Z,1010.81
2017-09-06T00:29:20.970Z,1010.84
2017-09-06T00:30:20.937Z,1010.81
2017-09-06T00:31:20.920Z,1010.80
2017-09-06T00:32:20.895Z,1010.78
2017-09-06T00:33:20.839Z,1010.76
2017-09-06T00:34:20.806Z,1010.75
2017-09-06T00:35:20.771Z,1010.72
2017-09-06T00:36:20.738Z,1010.72
2017-09-06T00:37:20.718Z,1010.72
2017-09-06T00:38:20.682Z,1010.71
2017-09-06T00:39:20.650Z,1010.73
2017-09-06T00:40:20.611Z,1010.73
2017-09-06T00:41:20.577Z,1010.74
2017-09-06T00:42:20.550Z,1010.75
2017-09-06T00:43:20.525Z,1010.76
2017-09-06T00:44:20.499Z,1010.76
2017-09-06T00:45:20.456Z,1010.74
2017-09-06T00:46:20.419Z,1010.75
2017-09-06T00:47:20.436Z,1010.75
2017-09-06T00:48:20.352Z,1010.75
2017-09-06T00:49:20.323Z,1010.74
2017-09-06T00:50:20.330Z,1010.75
2017-09-06T00:51:20.260Z,1010.76
2017-09-06T00:52:20.232Z,1010.74
2017-09-06T00:53:20.190Z,1010.75
2017-09-06T00:54:20.159Z,1010.66
2017-09-06T00:55:20.128Z,1010.69
2017-09-06T00:56:20.094Z,1010.68
2017-09-06T00:57:20.071Z,1010.68
2017-09-06T00:58:20.035Z,1010.61
2017-09-06T00:59:20.021Z,1010.61
2017-09-06T01:00:19.970Z,1010.59
2017-09-06T01:01:19.936Z,1010.59
2017-09-06T01:02:19.894Z,1010.56
2017-09-06T01:03:19.869Z,1010.55
2017-09-06T01:04:19.842Z,1010.56
2017-09-06T01:05:19.807Z,1010.55
2017-09-06T01:06:19.769Z,1010.53
2017-09-06T01:07:19.738Z,1010.50
2017-09-06T01:08:19.700Z,1010.50
2017-09-06T01:09:19.675Z,1010.46
2017-09-06T01:10:19.646Z,1010.45
2017-09-06T01:11:19.610Z,1010.40
2017-09-06T01:12:19.585Z,1010.37
2017-09-06T01:13:19.547Z,1010.39
2017-09-06T01:14:19.511Z,1010.36
2017-09-06T01:15:19.481Z,1010.34
2017-09-06T01:16:19.445Z,1010.36
2017-09-06T01:17:19.412Z,1010.31
2017-09-06T01:18:19.380Z,1010.28
2017-09-06T01:19:19.349Z,1010.30
2017-09-06T01:20:19.318Z,1010.32
2017-09-06T01:21:19.289Z,1010.30
2017-09-06T01:22:19.253Z,1010.28
2017-09-06T01:23:19.219Z,1010.27
2017-09-06T01:24:19.198Z,1010.26
2017-09-06T01:25:19.166Z,1010.27
2017-09-06T01:26:19.119Z,1010.23
2017-09-06T01:27:19.091Z,1010.23
2017-09-06T01:28:19.059Z,1010.21
2017-09-06T01:29:19.029Z,1010.22
2017-09-06T01:30:18.990Z,1010.21
2017-09-06T01:31:18.959Z,1010.23
2017-09-06T01:32:18.931Z,1010.21
2017-09-06T01:33:18.890Z,1010.18
2017-09-06T01:34:18.861Z,1010.17
2017-09-06T01:35:18.838Z,1010.14
2017-09-06T01:36:18.802Z,1010.14
2017-09-06T01:37:18.770Z,1010.11
2017-09-06T01:38:18.728Z,1010.08
2017-09-06T01:39:18.697Z,1010.09
2017-09-06T01:40:18.658Z,1010.07
2017-09-06T01:41:18.629Z,1010.09
2017-09-06T01:42:18.596Z,1010.04
2017-09-06T01:43:18.571Z,1010.02
2017-09-06T01:44:18.532Z,1009.98
2017-09-06T01:45:18.500Z,1009.99
2017-09-06T01:46:18.469Z,1009.98
2017-09-06T01:47:18.442Z,1009.96
2017-09-06T01:48:18.410Z,1009.96
2017-09-06T01:49:18.370Z,1009.94
2017-09-06T01:50:18.346Z,1009.90
2017-09-06T01:51:18.315Z,1009.91
2017-09-06T01:52:18.276Z,1009.90
2017-09-06T01:53:18.242Z,1009.91
2017-09-06T01:54:18.216Z,1009.86
2017-09-06T01:55:18.176Z,1009.84
2017-09-06T01:56:18.147Z,1009.85
2017-09-06T01:57:18.119Z,1009.85
2017-09-06T01:58:18.080Z,1009.85
2017-09-06T01:59:18.050Z,1009.83
2017-09-06T02:00:18.014Z,1009.87
2017-09-06T02:01:17.979Z,1009.82
2017-09-06T02:02:17.955Z,1009.84
2017-09-06T02:03:17.919Z,1009.85
2017-09-06T02:04:17.889Z,1009.81
2017-09-06T02:05:17.851Z,1009.80
2017-09-06T02:06:17.821Z,1009.79
2017-09-06T02:07:17.785Z,1009.75
2017-09-06T02:08:17.754Z,1009.72
2017-09-06T02:09:17.723Z,1009.70
2017-09-06T02:10:17.683Z,1009.69
2017-09-06T02:11:17.653Z,1009.67
2017-09-06T02:12:17.620Z,1009.63
2017-09-06T02:13:17.596Z,1009.60
2017-09-06T02:14:17.556Z,1009.62
2017-09-06T02:15:17.520Z,1009.56
2017-09-06T02:16:17.501Z,1009.58
2017-09-06T02:17:17.455Z,1009.57
2017-09-06T02:18:17.423Z,1009.57
2017-09-06T02:19:17.389Z,1009.57
2017-09-06T02:20:17.367Z,1009.54
2017-09-06T02:21:17.327Z,1009.57
2017-09-06T02:22:17.291Z,1009.54
2017-09-06T02:23:17.260Z,1009.54
2017-09-06T02:24:17.242Z,1009.56
2017-09-06T02:25:17.203Z,1009.47
2017-09-06T02:26:17.161Z,1009.50
2017-09-06T02:27:17.129Z,1009.53
2017-09-06T02:28:17.113Z,1009.51
2017-09-06T02:29:17.067Z,1009.51
2017-09-06T02:30:17.037Z,1009.47
2017-09-06T02:31:17.011Z,1009.47
2017-09-06T02:32:16.972Z,1009.45
2017-09-06T02:33:16.940Z,1009.44
2017-09-06T02:34:16.903Z,1009.40
2017-09-06T02:35:16.867Z,1009.40
2017-09-06T02:36:16.841Z,1009.37
2017-09-06T02:37:16.811Z,1009.37
2017-09-06T02:38:16.781Z,1009.36
2017-09-06T02:39:16.739Z,1009.40
2017-09-06T02:40:16.715Z,1009.39
2017-09-06T02:41:16.677Z,1009.35
2017-09-06T02:42:16.644Z,1009.38
2017-09-06T02:43:16.617Z,1009.36
2017-09-06T02:44:16.583Z,1009.39
2017-09-06T02:45:16.559Z,1009.36
2017-09-06T02:46:16.518Z,1009.35
2017-09-06T02:47:16.480Z,1009.35
2017-09-06T02:48:16.448Z,1009.36
2017-09-06T02:49:16.434Z,1009.35
2017-09-06T02:50:16.410Z,1009.32
2017-09-06T02:51:16.349Z,1009.32
2017-09-06T02:52:16.332Z,1009.31
2017-09-06T02:53:16.296Z,1009.27
2017-09-06T02:54:16.257Z,1009.25
2017-09-06T02:55:16.224Z,1009.22
2017-09-06T02:56:16.196Z,1009.17
2017-09-06T02:57:16.156Z,1009.18
2017-09-06T02:58:16.128Z,1009.18
2017-09-06T02:59:16.096Z,1009.14
2017-09-06T03:00:16.060Z,1009.15
2017-09-06T03:01:16.029Z,1009.16
2017-09-06T03:02:15.988Z,1009.13
2017-09-06T03:03:15.963Z,1009.14
2017-09-06T03:04:15.933Z,1009.12
2017-09-06T03:05:15.903Z,1009.12
2017-09-06T03:06:15.860Z,1009.10
2017-09-06T03:07:15.836Z,1009.08
2017-09-06T03:08:15.801Z,1009.08
2017-09-06T03:09:15.769Z,1009.07
2017-09-06T03:10:15.738Z,1009.05
2017-09-06T03:11:15.704Z,1009.01
2017-09-06T03:12:15.682Z,1008.99
2017-09-06T03:13:15.635Z,1008.96
2017-09-06T03:14:15.598Z,1008.95
2017-09-06T03:15:15.570Z,1008.95
2017-09-06T03:16:15.537Z,1008.91
2017-09-06T03:17:15.502Z,1008.88
2017-09-06T03:18:15.478Z,1008.83
2017-09-06T03:19:15.441Z,1008.84
2017-09-06T03:20:15.406Z,1008.82
2017-09-06T03:21:15.374Z,1008.80
2017-09-06T03:22:15.341Z,1008.81
2017-09-06T03:23:15.305Z,1008.82
2017-09-06T03:24:15.281Z,1008.82
2017-09-06T03:25:15.241Z,1008.83
2017-09-06T03:26:15.214Z,1008.81
2017-09-06T03:27:15.187Z,1008.83
2017-09-06T03:28:15.146Z,1008.81
2017-09-06T03:29:15.118Z,1008.83
2017-09-06T03:30:15.085Z,1008.81
2017-09-06T03:31:15.061Z,1008.83
2017-09-06T03:32:15.024Z,1008.87
2017-09-06T03:33:14.988Z,1008.84
2017-09-06T03:34:14.955Z,1008.83
2017-09-06T03:35:14.949Z,1008.80
2017-09-06T03:36:14.891Z,1008.72
2017-09-06T03:37:14.894Z,1008.72
2017-09-06T03:38:14.828Z,1008.69
2017-09-06T03:39:14.792Z,1008.71
2017-09-06T03:40:14.764Z,1008.66
2017-09-06T03:41:14.727Z,1008.61
2017-09-06T03:42:14.697Z,1008.62
2017-09-06T03:43:14.656Z,1008.61
2017-09-06T03:44:14.627Z,1008.58
2017-09-06T03:45:14.616Z,1008.56
2017-09-06T03:46:14.562Z,1008.53
2017-09-06T03:47:14.531Z,1008.54
2017-09-06T03:48:14.499Z,1008.57
2017-09-06T03:49:14.462Z,1008.54
2017-09-06T03:50:14.442Z,1008.57
2017-09-06T03:51:14.402Z,1008.55
2017-09-06T03:52:14.374Z,1008.53
2017-09-06T03:53:14.343Z,1008.52
2017-09-06T03:54:14.299Z,1008.49
2017-09-06T03:55:14.275Z,1008.49
2017-09-06T03:56:14.240Z,1008.48
2017-09-06T03:57:14.210Z,1008.46
2017-09-06T03:58:14.171Z,1008.48
2017-09-06T03:59:14.139Z,1008.45
2017-09-06T04:00:14.116Z,1008.47
2017-09-06T04:01:14.073Z,1008.46
2017-09-06T04:02:14.044Z,1008.45
2017-09-06T04:03:14.010Z,1008.48
2017-09-06T04:04:13.992Z,1008.48
2017-09-06T04:05:13.959Z,1008.49
2017-09-06T04:06:13.922Z,1008.44
2017-09-06T04:07:13.883Z,1008.43
2017-09-06T04:08:13.860Z,1008.43
2017-09-06T04:09:13.815Z,1008.42
2017-09-06T04:10:13.786Z,1008.43
2017-09-06T04:11:13.756Z,1008.43
2017-09-06T04:12:13.730Z,1008.42
2017-09-06T04:13:13.692Z,1008.39
2017-09-06T04:14:13.659Z,1008.38
2017-09-06T04:15:13.622Z,1008.35
2017-09-06T04:16:13.592Z,1008.33
2017-09-06T04:17:13.556Z,1008.29
2017-09-06T04:18:13.524Z,1008.29
2017-09-06T04:19:13.499Z,1008.29
2017-09-06T04:20:13.460Z,1008.28
2017-09-06T04:21:13.434Z,1008.31
2017-09-06T04:22:13.396Z,1008.28
2017-09-06T04:23:13.367Z,1008.32
2017-09-06T04:24:13.336Z,1008.28
2017-09-06T04:25:13.301Z,1008.29
2017-09-06T04:26:13.264Z,1008.30
2017-09-06T04:27:13.240Z,1008.30
2017-09-06T04:28:13.201Z,1008.32
2017-09-06T04:29:13.175Z,1008.30
2017-09-06T04:30:13.137Z,1008.33
2017-09-06T04:31:13.115Z,1008.29
2017-09-06T04:32:13.068Z,1008.28
2017-09-06T04:33:13.041Z,1008.28
2017-09-06T04:34:13.015Z,1008.26
2017-09-06T04:35:12.983Z,1008.23
2017-09-06T04:36:12.943Z,1008.22
2017-09-06T04:37:12.915Z,1008.20
2017-09-06T04:38:12.873Z,1008.19
2017-09-06T04:39:12.843Z,1008.17
2017-09-06T04:40:12.814Z,1008.18
2017-09-06T04:41:12.777Z,1008.14
2017-09-06T04:42:12.749Z,1008.12
2017-09-06T04:43:12.718Z,1008.11
2017-09-06T04:44:12.690Z,1008.07
2017-09-06T04:45:12.651Z,1008.02
2017-09-06T04:46:12.629Z,1008.06
2017-09-06T04:47:12.584Z,1008.04
2017-09-06T04:48:12.557Z,1008.05
2017-09-06T04:49:12.526Z,1008.05
2017-09-06T04:50:12.556Z,1008.05
2017-09-06T04:51:12.453Z,1008.08
2017-09-06T04:52:12.428Z,1008.07
2017-09-06T04:53:12.398Z,1008.01
2017-09-06T04:54:12.361Z,1008.01
2017-09-06T04:55:12.327Z,1008.02
2017-09-06T04:56:12.295Z,1008.00
2017-09-06T04:57:12.264Z,1007.96
2017-09-06T04:58:12.229Z,1007.96
2017-09-06T04:59:12.202Z,1007.94
2017-09-06T05:00:12.168Z,1007.95
2017-09-06T05:01:12.143Z,1007.93
2017-09-06T05:02:12.102Z,1007.93
2017-09-06T05:03:12.076Z,1007.88
2017-09-06T05:04:12.040Z,1007.89
2017-09-06T05:05:12.003Z,1007.93
2017-09-06T05:06:11.969Z,1007.89
2017-09-06T05:07:11.958Z,1007.89
2017-09-06T05:08:11.903Z,1007.87
2017-09-06T05:09:11.886Z,1007.85
2017-09-06T05:10:11.844Z,1007.84
2017-09-06T05:11:11.812Z,1007.86
2017-09-06T05:12:11.776Z,1007.87
2017-09-06T05:13:11.751Z,1007.85
2017-09-06T05:14:11.715Z,1007.85
2017-09-06T05:15:11.684Z,1007.80
2017-09-06T05:16:11.657Z,1007.80
2017-09-06T05:17:11.614Z,1007.81
2017-09-06T05:18:11.588Z,1007.75
2017-09-06T05:19:11.550Z,1007.78
2017-09-06T05:20:11.525Z,1007.71
2017-09-06T05:21:11.484Z,1007.71
2017-09-06T05:22:11.462Z,1007.69
2017-09-06T05:23:11.429Z,1007.71
2017-09-06T05:24:11.391Z,1007.75
2017-09-06T05:25:11.360Z,1007.78
2017-09-06T05:26:11.338Z,1007.79
2017-09-06T05:27:11.296Z,1007.81
2017-09-06T05:28:11.261Z,1007.84
2017-09-06T05:29:11.232Z,1007.82
2017-09-06T05:30:11.203Z,1007.85
2017-09-06T05:31:11.168Z,1007.83
2017-09-06T05:32:11.134Z,1007.80
2017-09-06T05:33:11.106Z,1007.80
2017-09-06T05:34:11.067Z,1007.75
2017-09-06T05:35:11.045Z,1007.83
2017-09-06T05:36:11.011Z,1007.87
2017-09-06T05:37:10.979Z,1007.89
2017-09-06T05:38:10.940Z,1007.94
2017-09-06T05:39:10.917Z,1007.94
2017-09-06T05:40:10.874Z,1007.95
2017-09-06T05:41:10.854Z,1007.94
2017-09-06T05:42:10.813Z,1007.93
2017-09-06T05:43:10.790Z,1007.88
2017-09-06T05:44:10.752Z,1007.87
2017-09-06T05:45:10.710Z,1007.87
2017-09-06T05:46:10.685Z,1007.87
2017-09-06T05:47:10.648Z,1007.89
2017-09-06T05:48:10.624Z,1007.91
2017-09-06T05:49:10.595Z,1007.93
2017-09-06T05:50:10.560Z,1007.94
2017-09-06T05:51:10.524Z,1007.94
2017-09-06T05:52:10.493Z,1007.94
2017-09-06T05:53:10.465Z,1007.96
2017-09-06T05:54:10.431Z,1007.95
2017-09-06T05:55:10.412Z,1007.94
2017-09-06T05:56:10.359Z,1007.95
2017-09-06T05:57:10.329Z,1007.94
2017-09-06T05:58:10.309Z,1007.97
2017-09-06T05:59:10.265Z,1007.95
2017-09-06T06:00:10.249Z,1007.94
2017-09-06T06:01:10.203Z,1007.90
2017-09-06T06:02:10.172Z,1007.92
2017-09-06T06:03:10.144Z,1007.89
2017-09-06T06:04:10.117Z,1007.89
2017-09-06T06:05:10.080Z,1007.90
2017-09-06T06:06:10.051Z,1007.93
2017-09-06T06:07:10.013Z,1007.86
2017-09-06T06:08:09.988Z,1007.86
2017-09-06T06:09:09.945Z,1007.87
2017-09-06T06:10:09.916Z,1007.87
2017-09-06T06:11:09.886Z,1007.85
2017-09-06T06:12:09.850Z,1007.82
2017-09-06T06:13:09.822Z,1007.80
2017-09-06T06:14:09.788Z,1007.74
2017-09-06T06:15:09.766Z,1007.68
2017-09-06T06:16:09.733Z,1007.65
2017-09-06T06:17:09.698Z,1007.68
2017-09-06T06:18:09.664Z,1007.66
2017-09-06T06:19:09.630Z,1007.69
2017-09-06T06:20:09.600Z,1007.70
2017-09-06T06:21:09.572Z,1007.68
2017-09-06T06:22:09.532Z,1007.69
2017-09-06T06:23:09.506Z,1007.70
2017-09-06T06:24:09.471Z,1007.69
2017-09-06T06:25:09.479Z,1007.69
2017-09-06T06:26:09.411Z,1007.71
2017-09-06T06:27:09.380Z,1007.70
2017-09-06T06:28:09.369Z,1007.68
2017-09-06T06:29:09.324Z,1007.69
2017-09-06T06:30:09.280Z,1007.68
2017-09-06T06:31:09.251Z,1007.66
2017-09-06T06:32:09.221Z,1007.68
2017-09-06T06:33:09.190Z,1007.64
2017-09-06T06:34:09.151Z,1007.64
2017-09-06T06:35:09.123Z,1007.63
2017-09-06T06:36:09.130Z,1007.60
2017-09-06T06:37:09.058Z,1007.57
2017-09-06T06:38:09.031Z,1007.59
2017-09-06T06:39:09.002Z,1007.61
2017-09-06T06:40:08.977Z,1007.53
2017-09-06T06:41:08.937Z,1007.55
2017-09-06T06:42:08.914Z,1007.49
2017-09-06T06:43:08.880Z,1007.50
2017-09-06T06:44:08.842Z,1007.52
2017-09-06T06:45:08.808Z,1007.54
2017-09-06T06:46:08.779Z,1007.54
2017-09-06T06:47:08.754Z,1007.62
2017-09-06T06:48:08.713Z,1007.58
2017-09-06T06:49:08.683Z,1007.61
2017-09-06T06:50:08.665Z,1007.61
2017-09-06T06:51:08.648Z,1007.65
2017-09-06T06:52:08.588Z,1007.64
2017-09-06T06:53:08.560Z,1007.62
2017-09-06T06:54:08.523Z,1007.64
2017-09-06T06:55:08.494Z,1007.69
2017-09-06T06:56:08.461Z,1007.63
2017-09-06T06:57:08.439Z,1007.67
2017-09-06T06:58:08.400Z,1007.66
2017-09-06T06:59:08.374Z,1007.67
2017-09-06T07:00:08.343Z,1007.66
2017-09-06T07:01:08.310Z,1007.66
2017-09-06T07:02:08.285Z,1007.68
2017-09-06T07:03:08.255Z,1007.68
2017-09-06T07:04:08.216Z,1007.68
2017-09-06T07:05:08.185Z,1007.69
2017-09-06T07:06:08.186Z,1007.67
2017-09-06T07:07:08.126Z,1007.68
2017-09-06T07:08:08.096Z,1007.67
2017-09-06T07:09:08.063Z,1007.68
2017-09-06T07:10:08.039Z,1007.63
2017-09-06T07:11:08.007Z,1007.58
2017-09-06T07:12:07.972Z,1007.53
2017-09-06T07:13:07.932Z,1007.50
2017-09-06T07:14:07.904Z,1007.49
2017-09-06T07:15:07.875Z,1007.46
2017-09-06T07:16:07.869Z,1007.44
2017-09-06T07:17:07.817Z,1007.39
2017-09-06T07:18:07.784Z,1007.39
2017-09-06T07:19:07.757Z,1007.33
2017-09-06T07:20:07.750Z,1007.33
2017-09-06T07:21:07.697Z,1007.28
2017-09-06T07:22:07.658Z,1007.31
2017-09-06T07:23:07.628Z,1007.31
2017-09-06T07:24:07.602Z,1007.25
2017-09-06T07:25:07.562Z,1007.26
2017-09-06T07:26:07.533Z,1007.26
2017-09-06T07:27:07.509Z,1007.28
2017-09-06T07:28:07.479Z,1007.28
2017-09-06T07:29:07.439Z,1007.24
2017-09-06T07:30:07.415Z,1007.26
2017-09-06T07:31:07.399Z,1007.22
2017-09-06T07:32:07.351Z,1007.21
2017-09-06T07:33:07.324Z,1007.14
2017-09-06T07:34:07.303Z,1007.15
2017-09-06T07:35:07.259Z,1007.18
2017-09-06T07:36:07.245Z,1007.19
2017-09-06T07:37:07.204Z,1007.18
2017-09-06T07:38:07.166Z,1007.17
2017-09-06T07:39:07.136Z,1007.17
2017-09-06T07:40:07.104Z,1007.16
2017-09-06T07:41:07.080Z,1007.20
2017-09-06T07:42:07.052Z,1007.21
2017-09-06T07:43:07.023Z,1007.22
2017-09-06T07:44:06.994Z,1007.19
2017-09-06T07:45:06.952Z,1007.18
2017-09-06T07:46:06.927Z,1007.18
2017-09-06T07:47:06.900Z,1007.23
2017-09-06T07:48:06.864Z,1007.23
2017-09-06T07:49:06.856Z,1007.23
2017-09-06T07:50:06.802Z,1007.22
2017-09-06T07:51:07.525Z,1007.24
2017-09-06T07:52:06.739Z,1007.22
2017-09-06T07:53:06.720Z,1007.21
2017-09-06T07:54:06.683Z,1007.26
2017-09-06T07:55:06.651Z,1007.26
2017-09-06T07:56:06.629Z,1007.20
2017-09-06T07:57:06.593Z,1007.20
2017-09-06T07:58:06.571Z,1007.21
2017-09-06T07:59:06.544Z,1007.24
2017-09-06T08:00:06.519Z,1007.25
2017-09-06T08:01:06.477Z,1007.23
2017-09-06T08:02:06.447Z,1007.23
2017-09-06T08:03:06.413Z,1007.26
2017-09-06T08:04:06.391Z,1007.28
2017-09-06T08:05:06.380Z,1007.30
2017-09-06T08:06:06.327Z,1007.27
2017-09-06T08:07:06.294Z,1007.25
2017-09-06T08:08:06.266Z,1007.25
2017-09-06T08:09:06.231Z,1007.26
2017-09-06T08:10:06.202Z,1007.19
2017-09-06T08:11:06.181Z,1007.24
2017-09-06T08:12:06.143Z,1007.23
2017-09-06T08:13:06.113Z,1007.20
2017-09-06T08:14:06.087Z,1007.22
2017-09-06T08:15:06.064Z,1007.17
2017-09-06T08:16:06.029Z,1007.15
2017-09-06T08:17:05.994Z,1007.08
2017-09-06T08:18:05.973Z,1007.09
2017-09-06T08:19:05.951Z,1007.08
2017-09-06T08:20:05.909Z,1007.07
2017-09-06T08:21:05.880Z,1007.07
2017-09-06T08:22:05.849Z,1007.05
2017-09-06T08:23:05.814Z,1007.07
2017-09-06T08:24:05.789Z,1007.09
2017-09-06T08:25:05.764Z,1007.14
2017-09-06T08:26:05.728Z,1007.11
2017-09-06T08:27:05.696Z,1007.10
2017-09-06T08:28:05.664Z,1007.08
2017-09-06T08:29:05.648Z,1007.13
2017-09-06T08:30:05.607Z,1007.14
2017-09-06T08:31:05.582Z,1007.08
2017-09-06T08:32:05.552Z,1007.09
2017-09-06T08:33:05.525Z,1007.09
2017-09-06T08:34:05.490Z,1007.11
2017-09-06T08:35:05.462Z,1007.06
2017-09-06T08:36:05.436Z,1007.07
2017-09-06T08:37:05.406Z,1007.03
2017-09-06T08:38:05.372Z,1007.01
2017-09-06T08:39:05.369Z,1007.03
2017-09-06T08:40:05.401Z,1006.98
2017-09-06T08:41:05.291Z,1007.02
2017-09-06T08:42:05.272Z,1007.00
2017-09-06T08:43:05.234Z,1007.00
2017-09-06T08:44:05.209Z,1006.95
2017-09-06T08:45:05.171Z,1006.93
2017-09-06T08:46:05.130Z,1006.91
2017-09-06T08:47:05.107Z,1006.89
2017-09-06T08:48:05.070Z,1006.88
2017-09-06T08:49:05.037Z,1006.91
2017-09-06T08:50:05.015Z,1006.91
2017-09-06T08:51:04.987Z,1006.88
2017-09-06T08:52:04.954Z,1006.86
2017-09-06T08:53:04.920Z,1006.87
2017-09-06T08:54:04.889Z,1006.84
2017-09-06T08:55:04.864Z,1006.83
2017-09-06T08:56:04.839Z,1006.84
2017-09-06T08:57:04.799Z,1006.78
2017-09-06T08:58:04.783Z,1006.80
2017-09-06T08:59:04.737Z,1006.80
2017-09-06T09:00:04.723Z,1006.82
2017-09-06T09:01:04.685Z,1006.77
2017-09-06T09:02:04.664Z,1006.79
2017-09-06T09:03:04.618Z,1006.78
2017-09-06T09:04:04.628Z,1006.79
2017-09-06T09:05:04.572Z,1006.78
2017-09-06T09:06:04.583Z,1006.74
2017-09-06T09:07:04.570Z,1006.72
2017-09-06T09:08:04.471Z,1006.72
2017-09-06T09:09:04.470Z,1006.72
2017-09-06T09:10:04.411Z,1006.76
2017-09-06T09:11:04.385Z,1006.71
2017-09-06T09:12:04.355Z,1006.73
2017-09-06T09:13:04.338Z,1006.73
2017-09-06T09:14:04.301Z,1006.66
2017-09-06T09:15:04.268Z,1006.70
2017-09-06T09:16:04.240Z,1006.65
2017-09-06T09:17:04.211Z,1006.65
2017-09-06T09:18:04.182Z,1006.64
2017-09-06T09:19:04.145Z,1006.67
2017-09-06T09:20:04.122Z,1006.67
2017-09-06T09:21:04.089Z,1006.70
2017-09-06T09:22:04.052Z,1006.68
2017-09-06T09:23:04.027Z,1006.64
2017-09-06T09:24:04.028Z,1006.66
2017-09-06T09:25:03.966Z,1006.69
2017-09-06T09:26:03.945Z,1006.69
2017-09-06T09:27:03.916Z,1006.69
2017-09-06T09:28:03.918Z,1006.61
2017-09-06T09:29:03.852Z,1006.64
2017-09-06T09:30:03.815Z,1006.64
2017-09-06T09:31:03.788Z,1006.60
2017-09-06T09:32:03.756Z,1006.64
2017-09-06T09:33:03.715Z,1006.62
2017-09-06T09:34:03.681Z,1006.62
2017-09-06T09:35:03.688Z,1006.63
2017-09-06T09:36:03.621Z,1006.66
2017-09-06T09:37:03.593Z,1006.60
2017-09-06T09:38:03.565Z,1006.61
2017-09-06T09:39:03.536Z,1006.61
2017-09-06T09:40:03.502Z,1006.65
2017-09-06T09:41:03.475Z,1006.66
2017-09-06T09:42:03.438Z,1006.63
2017-09-06T09:43:03.417Z,1006.62
2017-09-06T09:44:03.379Z,1006.62
2017-09-06T09:45:03.349Z,1006.53
2017-09-06T09:46:03.315Z,1006.60
2017-09-06T09:47:03.293Z,1006.58
2017-09-06T09:48:03.261Z,1006.49
2017-09-06T09:49:03.233Z,1006.52
2017-09-06T09:50:03.191Z,1006.57
2017-09-06T09:51:03.223Z,1006.52
2017-09-06T09:52:03.139Z,1006.49
2017-09-06T09:53:03.106Z,1006.46
2017-09-06T09:54:03.077Z,1006.47
2017-09-06T09:55:03.050Z,1006.48
2017-09-06T09:56:03.015Z,1006.49
2017-09-06T09:57:02.993Z,1006.50
2017-09-06T09:58:02.964Z,1006.55
2017-09-06T09:59:02.931Z,1006.53
2017-09-06T10:00:02.897Z,1006.57
2017-09-06T10:01:02.876Z,1006.59
2017-09-06T10:02:02.841Z,1006.59
2017-09-06T10:03:02.811Z,1006.63
2017-09-06T10:04:02.782Z,1006.53
2017-09-06T10:05:02.758Z,1006.58
2017-09-06T10:06:02.721Z,1006.52
2017-09-06T10:07:02.698Z,1006.50
2017-09-06T10:08:02.667Z,1006.50
2017-09-06T10:09:02.637Z,1006.49
2017-09-06T10:10:02.609Z,1006.50
2017-09-06T10:11:02.578Z,1006.45
2017-09-06T10:12:02.550Z,1006.44
2017-09-06T10:13:02.518Z,1006.44
2017-09-06T10:14:02.492Z,1006.46
2017-09-06T10:15:02.465Z,1006.42
2017-09-06T10:16:02.432Z,1006.46
2017-09-06T10:17:02.400Z,1006.40
2017-09-06T10:18:02.377Z,1006.40
2017-09-06T10:19:02.355Z,1006.37
2017-09-06T10:20:02.322Z,1006.39
2017-09-06T10:21:02.293Z,1006.39
2017-09-06T10:22:02.259Z,1006.40
2017-09-06T10:23:02.233Z,1006.34
2017-09-06T10:24:02.217Z,1006.37
2017-09-06T10:25:02.179Z,1006.36
2017-09-06T10:26:02.152Z,1006.32
2017-09-06T10:27:02.123Z,1006.31
2017-09-06T10:28:02.093Z,1006.28
2017-09-06T10:29:02.076Z,1006.24
2017-09-06T10:30:02.034Z,1006.21
2017-09-06T10:31:02.016Z,1006.17
2017-09-06T10:32:01.987Z,1006.10
2017-09-06T10:33:01.958Z,1006.05
2017-09-06T10:34:01.926Z,1006.05
2017-09-06T10:35:01.904Z,1006.01
2017-09-06T10:36:01.871Z,1006.01
2017-09-06T10:37:01.852Z,1005.99
2017-09-06T10:38:01.814Z,1005.95
2017-09-06T10:39:01.897Z,1005.89
2017-09-06T10:40:01.759Z,1005.89
2017-09-06T10:41:01.727Z,1005.88
2017-09-06T10:42:01.715Z,1005.90
2017-09-06T10:43:01.670Z,1005.87
2017-09-06T10:44:01.646Z,1005.85
2017-09-06T10:45:01.621Z,1005.83
2017-09-06T10:46:01.591Z,1005.82
2017-09-06T10:47:01.568Z,1005.83
2017-09-06T10:48:01.538Z,1005.78
2017-09-06T10:49:01.521Z,1005.72
2017-09-06T10:50:01.489Z,1005.70
2017-09-06T10:51:01.450Z,1005.66
2017-09-06T10:52:01.424Z,1005.64
2017-09-06T10:53:01.391Z,1005.69
2017-09-06T10:54:01.363Z,1005.65
2017-09-06T10:55:01.341Z,1005.65
2017-09-06T10:56:01.313Z,1005.74
2017-09-06T10:57:01.282Z,1005.73
2017-09-06T10:58:01.256Z,1005.74
2017-09-06T10:59:01.230Z,1005.70
2017-09-06T11:00:01.198Z,1005.66
2017-09-06T11:01:01.198Z,1005.74
2017-09-06T11:02:01.142Z,1005.73
2017-09-06T11:03:01.114Z,1005.71
2017-09-06T11:04:01.082Z,1005.70
2017-09-06T11:05:01.054Z,1005.70
2017-09-06T11:06:01.038Z,1005.70
2017-09-06T11:07:00.997Z,1005.73
2017-09-06T11:08:00.991Z,1005.72
2017-09-06T11:09:00.944Z,1005.78
2017-09-06T11:10:00.913Z,1005.71
2017-09-06T11:11:00.894Z,1005.74
2017-09-06T11:12:00.860Z,1005.75
2017-09-06T11:13:00.830Z,1005.73
2017-09-06T11:14:00.795Z,1005.73
2017-09-06T11:15:00.773Z,1005.75
2017-09-06T11:16:00.739Z,1005.75
2017-09-06T11:17:00.712Z,1005.78
2017-09-06T11:18:00.680Z,1005.77
2017-09-06T11:19:00.662Z,1005.76
2017-09-06T11:20:00.639Z,1005.76
2017-09-06T11:21:00.596Z,1005.75
2017-09-06T11:22:00.567Z,1005.77
2017-09-06T11:23:00.553Z,1005.77
2017-09-06T11:24:00.509Z,1005.74
2017-09-06T11:25:00.486Z,1005.76
2017-09-06T11:26:00.453Z,1005.77
2017-09-06T11:27:00.428Z,1005.80
2017-09-06T11:28:00.404Z,1005.77
2017-09-06T11:29:00.374Z,1005.78
2017-09-06T11:30:00.358Z,1005.79
2017-09-06T11:31:00.313Z,1005.75
2017-09-06T11:32:00.285Z,1005.70
2017-09-06T11:33:00.254Z,1005.70
2017-09-06T11:34:00.233Z,1005.69
2017-09-06T11:35:00.205Z,1005.70
2017-09-06T11:36:00.178Z,1005.72
2017-09-06T11:37:00.143Z,1005.66
2017-09-06T11:38:00.126Z,1005.65
2017-09-06T11:39:00.093Z,1005.66
2017-09-06T11:40:00.061Z,1005.67
2017-09-06T11:41:00.045Z,1005.63
2017-09-06T11:42:00.003Z,1005.62
2017-09-06T11:42:59.973Z,1005.58
2017-09-06T11:43:59.944Z,1005.56
2017-09-06T11:44:59.922Z,1005.55
2017-09-06T11:45:59.893Z,1005.53
2017-09-06T11:46:59.855Z,1005.51
2017-09-06T11:47:59.834Z,1005.47
2017-09-06T11:48:59.801Z,1005.48
2017-09-06T11:49:59.809Z,1005.46
2017-09-06T11:50:59.758Z,1005.53
2017-09-06T11:51:59.720Z,1005.53
2017-09-06T11:52:59.829Z,1005.45
2017-09-06T11:53:59.684Z,1005.45
2017-09-06T11:54:59.643Z,1005.44
2017-09-06T11:55:59.614Z,1005.47
2017-09-06T11:56:59.583Z,1005.47
2017-09-06T11:57:59.549Z,1005.45
2017-09-06T11:58:59.525Z,1005.46
2017-09-06T11:59:59.495Z,1005.40
2017-09-06T12:00:59.472Z,1005.39
2017-09-06T12:01:59.442Z,1005.34
2017-09-06T12:02:59.419Z,1005.32
2017-09-06T12:03:59.386Z,1005.35
2017-09-06T12:04:59.359Z,1005.32